sensor_id;sensor_type;location;lat;lon;timestamp;pressure;altitude;pressure_sealevel;temperature;humidity
14966;BME280;7577;45.226;5.798;2023-04-09T00:02:04;99363.91;;;21.98;36.36
14966;BME280;7577;45.226;5.798;2023-04-09T00:04:34;99366.68;;;21.98;36.35
14966;BME280;7577;45.226;5.798;2023-04-09T00:07:06;99366.73;;;21.96;36.37
14966;BME280;7577;45.226;5.798;2023-04-09T00:12:18;99365.34;;;21.96;36.38
14966;BME280;7577;45.226;5.798;2023-04-09T00:14:49;99365.70;;;21.94;36.37
14966;BME280;7577;45.226;5.798;2023-04-09T00:17:20;99364.88;;;21.94;36.34
14966;BME280;7577;45.226;5.798;2023-04-09T00:19:50;99370.19;;;21.93;36.33
14966;BME280;7577;45.226;5.798;2023-04-09T00:24:59;99364.88;;;21.94;36.37
14966;BME280;7577;45.226;5.798;2023-04-09T00:27:29;99366.67;;;21.90;36.37
14966;BME280;7577;45.226;5.798;2023-04-09T00:29:59;99365.05;;;21.89;36.37
14966;BME280;7577;45.226;5.798;2023-04-09T00:32:30;99372.55;;;21.88;36.36
14966;BME280;7577;45.226;5.798;2023-04-09T00:35:00;99373.14;;;21.88;36.36
14966;BME280;7577;45.226;5.798;2023-04-09T00:37:30;99364.81;;;21.88;36.35
14966;BME280;7577;45.226;5.798;2023-04-09T00:40:01;99369.30;;;21.86;36.36
14966;BME280;7577;45.226;5.798;2023-04-09T00:42:33;99368.47;;;21.86;36.35
14966;BME280;7577;45.226;5.798;2023-04-09T00:47:42;99372.30;;;21.87;36.37
14966;BME280;7577;45.226;5.798;2023-04-09T00:52:52;99369.38;;;21.84;36.36
14966;BME280;7577;45.226;5.798;2023-04-09T00:55:23;99369.47;;;21.81;36.36
14966;BME280;7577;45.226;5.798;2023-04-09T00:57:53;99370.27;;;21.82;36.37
14966;BME280;7577;45.226;5.798;2023-04-09T01:00:24;99372.25;;;21.81;36.36
14966;BME280;7577;45.226;5.798;2023-04-09T01:02:58;99369.20;;;21.80;36.36
14966;BME280;7577;45.226;5.798;2023-04-09T01:08:15;99372.80;;;21.81;36.37
14966;BME280;7577;45.226;5.798;2023-04-09T01:13:29;99376.73;;;21.80;36.35
14966;BME280;7577;45.226;5.798;2023-04-09T01:18:45;99377.28;;;21.79;36.33
14966;BME280;7577;45.226;5.798;2023-04-09T01:21:18;99383.75;;;21.77;36.35
14966;BME280;7577;45.226;5.798;2023-04-09T01:26:52;99375.98;;;21.77;36.36
14966;BME280;7577;45.226;5.798;2023-04-09T01:29:10;99384.39;;;21.74;36.36
14966;BME280;7577;45.226;5.798;2023-04-09T01:31:42;99376.98;;;21.72;36.35
14966;BME280;7577;45.226;5.798;2023-04-09T01:34:16;99385.54;;;21.73;36.35
14966;BME280;7577;45.226;5.798;2023-04-09T01:39:27;99386.02;;;21.75;36.31
14966;BME280;7577;45.226;5.798;2023-04-09T01:41:58;99394.73;;;21.71;36.33
14966;BME280;7577;45.226;5.798;2023-04-09T01:44:30;99394.50;;;21.70;36.33
14966;BME280;7577;45.226;5.798;2023-04-09T01:49:45;99396.72;;;21.71;36.35
14966;BME280;7577;45.226;5.798;2023-04-09T01:52:16;99396.48;;;21.70;36.30
14966;BME280;7577;45.226;5.798;2023-04-09T01:57:25;99397.87;;;21.70;36.31
14966;BME280;7577;45.226;5.798;2023-04-09T01:59:56;99405.87;;;21.69;36.29
14966;BME280;7577;45.226;5.798;2023-04-09T02:02:30;99402.40;;;21.66;36.31
14966;BME280;7577;45.226;5.798;2023-04-09T02:05:00;99409.89;;;21.65;36.33
14966;BME280;7577;45.226;5.798;2023-04-09T02:07:36;99409.06;;;21.65;36.32
14966;BME280;7577;45.226;5.798;2023-04-09T02:10:09;99408.50;;;21.65;36.31
14966;BME280;7577;45.226;5.798;2023-04-09T02:12:44;99407.11;;;21.65;36.30
14966;BME280;7577;45.226;5.798;2023-04-09T02:15:14;99405.48;;;21.64;36.28
14966;BME280;7577;45.226;5.798;2023-04-09T02:20:30;99403.86;;;21.63;36.31
14966;BME280;7577;45.226;5.798;2023-04-09T02:23:00;99407.52;;;21.61;36.28
14966;BME280;7577;45.226;5.798;2023-04-09T02:28:11;99397.25;;;21.62;36.28
14966;BME280;7577;45.226;5.798;2023-04-09T02:30:41;99407.36;;;21.58;36.29
14966;BME280;7577;45.226;5.798;2023-04-09T02:33:14;99411.52;;;21.58;36.30
14966;BME280;7577;45.226;5.798;2023-04-09T02:38:22;99410.61;;;21.60;36.27
14966;BME280;7577;45.226;5.798;2023-04-09T02:40:52;99411.28;;;21.57;36.30
14966;BME280;7577;45.226;5.798;2023-04-09T02:43:23;99407.45;;;21.55;36.30
14966;BME280;7577;45.226;5.798;2023-04-09T02:45:53;99417.15;;;21.55;36.29
14966;BME280;7577;45.226;5.798;2023-04-09T02:51:03;99410.22;;;21.55;36.29
14966;BME280;7577;45.226;5.798;2023-04-09T02:53:32;99414.45;;;21.53;36.27
14966;BME280;7577;45.226;5.798;2023-04-09T02:56:05;99414.45;;;21.53;36.27
14966;BME280;7577;45.226;5.798;2023-04-09T02:58:36;99419.73;;;21.52;36.29
14966;BME280;7577;45.226;5.798;2023-04-09T03:03:44;99419.41;;;21.53;36.24
14966;BME280;7577;45.226;5.798;2023-04-09T03:06:14;99418.70;;;21.50;36.25
14966;BME280;7577;45.226;5.798;2023-04-09T03:08:46;99415.09;;;21.50;36.25
14966;BME280;7577;45.226;5.798;2023-04-09T03:11:16;99418.42;;;21.49;36.24
14966;BME280;7577;45.226;5.798;2023-04-09T03:16:25;99418.70;;;21.50;36.23
14966;BME280;7577;45.226;5.798;2023-04-09T03:18:55;99419.57;;;21.48;36.22
14966;BME280;7577;45.226;5.798;2023-04-09T03:21:25;99418.78;;;21.48;36.22
14966;BME280;7577;45.226;5.798;2023-04-09T03:23:56;99415.73;;;21.47;36.20
14966;BME280;7577;45.226;5.798;2023-04-09T03:29:03;99420.72;;;21.47;36.18
14966;BME280;7577;45.226;5.798;2023-04-09T03:31:34;99416.64;;;21.45;36.19
14966;BME280;7577;45.226;5.798;2023-04-09T03:36:43;99424.64;;;21.46;36.18
14966;BME280;7577;45.226;5.798;2023-04-09T03:39:14;99419.50;;;21.42;36.20
14966;BME280;7577;45.226;5.798;2023-04-09T03:41:44;99423.66;;;21.42;36.18
14966;BME280;7577;45.226;5.798;2023-04-09T03:44:14;99423.66;;;21.42;36.18
14966;BME280;7577;45.226;5.798;2023-04-09T03:46:45;99422.03;;;21.41;36.19
14966;BME280;7577;45.226;5.798;2023-04-09T03:51:56;99427.81;;;21.42;36.17
14966;BME280;7577;45.226;5.798;2023-04-09T03:54:28;99426.23;;;21.39;36.19
14966;BME280;7577;45.226;5.798;2023-04-09T03:56:58;99423.22;;;21.38;36.20
14966;BME280;7577;45.226;5.798;2023-04-09T03:59:31;99422.42;;;21.37;36.19
14966;BME280;7577;45.226;5.798;2023-04-09T04:02:01;99432.69;;;21.37;36.17
14966;BME280;7577;45.226;5.798;2023-04-09T04:04:31;99427.97;;;21.37;36.17
14966;BME280;7577;45.226;5.798;2023-04-09T04:07:03;99434.07;;;21.37;36.16
14966;BME280;7577;45.226;5.798;2023-04-09T04:09:32;99439.61;;;21.37;36.17
14966;BME280;7577;45.226;5.798;2023-04-09T04:14:42;99438.47;;;21.38;36.17
14966;BME280;7577;45.226;5.798;2023-04-09T04:17:12;99444.09;;;21.35;36.19
14966;BME280;7577;45.226;5.798;2023-04-09T04:22:20;99453.71;;;21.38;36.17
14966;BME280;7577;45.226;5.798;2023-04-09T04:24:50;99457.39;;;21.36;36.19
14966;BME280;7577;45.226;5.798;2023-04-09T04:27:20;99455.77;;;21.35;36.20
14966;BME280;7577;45.226;5.798;2023-04-09T04:29:50;99459.92;;;21.35;36.18
14966;BME280;7577;45.226;5.798;2023-04-09T04:32:21;99464.31;;;21.36;36.19
14966;BME280;7577;45.226;5.798;2023-04-09T04:37:29;99460.08;;;21.38;36.21
14966;BME280;7577;45.226;5.798;2023-04-09T04:40:01;99460.95;;;21.36;36.17
14966;BME280;7577;45.226;5.798;2023-04-09T04:42:31;99465.39;;;21.37;36.17
14966;BME280;7577;45.226;5.798;2023-04-09T04:45:03;99463.17;;;21.37;36.20
14966;BME280;7577;45.226;5.798;2023-04-09T04:50:12;99459.17;;;21.40;36.19
14966;BME280;7577;45.226;5.798;2023-04-09T04:52:42;99473.63;;;21.40;36.19
14966;BME280;7577;45.226;5.798;2023-04-09T04:55:12;99472.23;;;21.40;36.17
14966;BME280;7577;45.226;5.798;2023-04-09T05:00:21;99474.92;;;21.42;36.14
14966;BME280;7577;45.226;5.798;2023-04-09T05:02:52;99482.41;;;21.42;36.14
14966;BME280;7577;45.226;5.798;2023-04-09T05:07:59;99482.34;;;21.44;36.26
14966;BME280;7577;45.226;5.798;2023-04-09T05:10:30;99492.36;;;21.43;36.24
14966;BME280;7577;45.226;5.798;2023-04-09T05:15:41;99488.31;;;21.49;36.20
14966;BME280;7577;45.226;5.798;2023-04-09T05:18:11;99497.78;;;21.48;36.27
14966;BME280;7577;45.226;5.798;2023-04-09T05:20:41;99498.81;;;21.49;36.26
14966;BME280;7577;45.226;5.798;2023-04-09T05:23:11;99506.26;;;21.51;36.26
14966;BME280;7577;45.226;5.798;2023-04-09T05:25:41;99505.94;;;21.53;36.36
14966;BME280;7577;45.226;5.798;2023-04-09T05:28:13;99501.78;;;21.53;36.42
14966;BME280;7577;45.226;5.798;2023-04-09T05:30:46;99503.33;;;21.56;36.53
14966;BME280;7577;45.226;5.798;2023-04-09T05:33:16;99507.73;;;21.57;36.58
14966;BME280;7577;45.226;5.798;2023-04-09T05:35:46;99504.40;;;21.58;36.66
14966;BME280;7577;45.226;5.798;2023-04-09T05:38:17;99522.34;;;21.60;36.73
14966;BME280;7577;45.226;5.798;2023-04-09T05:43:26;99508.88;;;21.65;36.87
14966;BME280;7577;45.226;5.798;2023-04-09T05:45:56;99512.80;;;21.64;36.92
14966;BME280;7577;45.226;5.798;2023-04-09T05:48:26;99513.03;;;21.65;36.94
14966;BME280;7577;45.226;5.798;2023-04-09T05:50:56;99509.62;;;21.68;37.00
14966;BME280;7577;45.226;5.798;2023-04-09T05:53:27;99510.73;;;21.69;37.10
14966;BME280;7577;45.226;5.798;2023-04-09T05:58:34;99514.33;;;21.78;37.28
14966;BME280;7577;45.226;5.798;2023-04-09T06:01:05;99515.48;;;21.77;37.29
14966;BME280;7577;45.226;5.798;2023-04-09T06:03:35;99522.81;;;21.82;37.35
14966;BME280;7577;45.226;5.798;2023-04-09T06:06:06;99524.12;;;21.84;37.35
14966;BME280;7577;45.226;5.798;2023-04-09T06:08:36;99530.09;;;21.89;37.35
14966;BME280;7577;45.226;5.798;2023-04-09T06:11:09;99525.61;;;21.90;37.36
14966;BME280;7577;45.226;5.798;2023-04-09T06:13:40;99536.31;;;21.94;37.28
14966;BME280;7577;45.226;5.798;2023-04-09T06:16:11;99536.23;;;21.97;37.30
14966;BME280;7577;45.226;5.798;2023-04-09T06:18:41;99535.55;;;22.00;37.22
14966;BME280;7577;45.226;5.798;2023-04-09T06:21:13;99538.52;;;22.03;37.16
14966;BME280;7577;45.226;5.798;2023-04-09T06:26:21;99536.05;;;22.10;37.29
14966;BME280;7577;45.226;5.798;2023-04-09T06:28:51;99535.81;;;22.09;37.36
14966;BME280;7577;45.226;5.798;2023-04-09T06:34:00;99543.81;;;22.19;37.54
14966;BME280;7577;45.226;5.798;2023-04-09T06:39:08;99545.39;;;22.23;37.36
14966;BME280;7577;45.226;5.798;2023-04-09T06:41:38;99540.95;;;22.22;37.42
14966;BME280;7577;45.226;5.798;2023-04-09T06:46:46;99539.66;;;22.28;37.30
14966;BME280;7577;45.226;5.798;2023-04-09T06:49:16;99546.02;;;22.28;37.32
14966;BME280;7577;45.226;5.798;2023-04-09T06:51:46;99540.14;;;22.30;37.31
14966;BME280;7577;45.226;5.798;2023-04-09T06:54:16;99537.37;;;22.30;37.32
14966;BME280;7577;45.226;5.798;2023-04-09T06:56:48;99540.56;;;22.35;37.40
14966;BME280;7577;45.226;5.798;2023-04-09T06:59:18;99536.40;;;22.35;37.36
14966;BME280;7577;45.226;5.798;2023-04-09T07:01:48;99534.34;;;22.38;37.38
14966;BME280;7577;45.226;5.798;2023-04-09T07:04:18;99535.99;;;22.39;37.26
14966;BME280;7577;45.226;5.798;2023-04-09T07:09:27;99539.48;;;22.42;37.18
14966;BME280;7577;45.226;5.798;2023-04-09T07:11:57;99540.95;;;22.39;37.21
14966;BME280;7577;45.226;5.798;2023-04-09T07:14:27;99535.91;;;22.41;37.17
14966;BME280;7577;45.226;5.798;2023-04-09T07:16:57;99533.12;;;22.41;37.12
14966;BME280;7577;45.226;5.798;2023-04-09T07:19:27;99536.97;;;22.43;37.05
14966;BME280;7577;45.226;5.798;2023-04-09T07:24:40;99536.33;;;22.46;36.97
14966;BME280;7577;45.226;5.798;2023-04-09T07:29:53;99538.54;;;22.46;36.89
14966;BME280;7577;45.226;5.798;2023-04-09T07:35:01;99536.59;;;22.47;36.82
14966;BME280;7577;45.226;5.798;2023-04-09T07:37:34;99541.05;;;22.45;36.86
14966;BME280;7577;45.226;5.798;2023-04-09T07:40:07;99535.58;;;22.43;36.76
14966;BME280;7577;45.226;5.798;2023-04-09T07:42:38;99534.99;;;22.43;36.77
14966;BME280;7577;45.226;5.798;2023-04-09T07:45:10;99534.44;;;22.44;36.76
14966;BME280;7577;45.226;5.798;2023-04-09T07:47:40;99533.37;;;22.42;36.90
14966;BME280;7577;45.226;5.798;2023-04-09T07:50:11;99533.84;;;22.44;36.75
14966;BME280;7577;45.226;5.798;2023-04-09T07:55:19;99532.43;;;22.47;36.74
14966;BME280;7577;45.226;5.798;2023-04-09T07:57:50;99535.23;;;22.44;36.70
14966;BME280;7577;45.226;5.798;2023-04-09T08:00:21;99542.77;;;22.44;36.63
14966;BME280;7577;45.226;5.798;2023-04-09T08:02:53;99544.15;;;22.44;36.57
14966;BME280;7577;45.226;5.798;2023-04-09T08:05:25;99548.31;;;22.44;36.62
14966;BME280;7577;45.226;5.798;2023-04-09T08:07:56;99545.86;;;22.42;36.63
14966;BME280;7577;45.226;5.798;2023-04-09T08:10:26;99549.20;;;22.42;36.60
14966;BME280;7577;45.226;5.798;2023-04-09T08:15:33;99547.25;;;22.42;36.63
14966;BME280;7577;45.226;5.798;2023-04-09T08:18:05;99547.57;;;22.41;36.64
14966;BME280;7577;45.226;5.798;2023-04-09T08:20:35;99544.80;;;22.41;36.68
14966;BME280;7577;45.226;5.798;2023-04-09T08:23:05;99551.17;;;22.41;36.67
14966;BME280;7577;45.226;5.798;2023-04-09T08:28:13;99556.41;;;22.43;36.63
14966;BME280;7577;45.226;5.798;2023-04-09T08:30:44;99553.45;;;22.39;36.72
14966;BME280;7577;45.226;5.798;2023-04-09T08:33:15;99551.82;;;22.38;36.83
14966;BME280;7577;45.226;5.798;2023-04-09T08:35:45;99554.83;;;22.39;37.09
14966;BME280;7577;45.226;5.798;2023-04-09T08:38:15;99549.79;;;22.41;37.26
14966;BME280;7577;45.226;5.798;2023-04-09T08:40:45;99548.08;;;22.43;38.08
14966;BME280;7577;45.226;5.798;2023-04-09T08:43:16;99546.42;;;22.42;38.62
14966;BME280;7577;45.226;5.798;2023-04-09T08:45:48;99551.33;;;22.45;38.59
14966;BME280;7577;45.226;5.798;2023-04-09T08:48:20;99557.66;;;22.48;38.78
14966;BME280;7577;45.226;5.798;2023-04-09T08:50:52;99551.51;;;22.48;38.58
14966;BME280;7577;45.226;5.798;2023-04-09T08:53:23;99546.46;;;22.50;38.38
14966;BME280;7577;45.226;5.798;2023-04-09T08:55:53;99545.08;;;22.50;38.42
14966;BME280;7577;45.226;5.798;2023-04-09T08:58:23;99541.06;;;22.54;38.25
14966;BME280;7577;45.226;5.798;2023-04-09T09:00:53;99538.28;;;22.54;38.16
14966;BME280;7577;45.226;5.798;2023-04-09T09:03:23;99538.52;;;22.55;38.05
14966;BME280;7577;45.226;5.798;2023-04-09T09:08:31;99531.17;;;22.59;38.30
14966;BME280;7577;45.226;5.798;2023-04-09T09:11:01;99532.64;;;22.56;38.16
14966;BME280;7577;45.226;5.798;2023-04-09T09:16:13;99523.48;;;22.64;38.19
14966;BME280;7577;45.226;5.798;2023-04-09T09:18:44;99521.69;;;22.60;38.18
14966;BME280;7577;45.226;5.798;2023-04-09T09:21:16;99520.80;;;22.62;38.12
14966;BME280;7577;45.226;5.798;2023-04-09T09:23:47;99521.36;;;22.61;38.10
14966;BME280;7577;45.226;5.798;2023-04-09T09:29:05;99511.55;;;22.64;38.01
14966;BME280;7577;45.226;5.798;2023-04-09T09:31:45;99512.70;;;22.63;38.16
14966;BME280;7577;45.226;5.798;2023-04-09T09:34:17;99513.53;;;22.63;38.13
14966;BME280;7577;45.226;5.798;2023-04-09T09:36:48;99515.16;;;22.64;38.01
14966;BME280;7577;45.226;5.798;2023-04-09T09:39:18;99510.98;;;22.64;38.09
14966;BME280;7577;45.226;5.798;2023-04-09T09:42:05;99512.61;;;22.65;38.33
14966;BME280;7577;45.226;5.798;2023-04-09T09:44:32;99509.19;;;22.68;38.24
14966;BME280;7577;45.226;5.798;2023-04-09T09:47:03;99501.69;;;22.69;38.17
14966;BME280;7577;45.226;5.798;2023-04-09T09:49:34;99503.30;;;22.70;38.15
14966;BME280;7577;45.226;5.798;2023-04-09T09:54:46;99493.73;;;22.73;38.07
14966;BME280;7577;45.226;5.798;2023-04-09T09:57:18;99501.23;;;22.73;38.07
14966;BME280;7577;45.226;5.798;2023-04-09T09:59:54;99496.74;;;22.74;38.04
14966;BME280;7577;45.226;5.798;2023-04-09T10:02:25;99490.63;;;22.75;38.06
14966;BME280;7577;45.226;5.798;2023-04-09T10:05:00;99485.30;;;22.76;38.04
14966;BME280;7577;45.226;5.798;2023-04-09T10:10:09;99484.80;;;22.82;38.26
14966;BME280;7577;45.226;5.798;2023-04-09T10:12:39;99478.77;;;22.80;38.03
14966;BME280;7577;45.226;5.798;2023-04-09T10:15:12;99479.89;;;22.79;38.03
14966;BME280;7577;45.226;5.798;2023-04-09T10:17:43;99472.95;;;22.79;38.06
14966;BME280;7577;45.226;5.798;2023-04-09T10:20:16;99474.84;;;22.81;37.99
14966;BME280;7577;45.226;5.798;2023-04-09T10:25:30;99469.66;;;22.86;38.19
14966;BME280;7577;45.226;5.798;2023-04-09T10:28:05;99464.46;;;22.84;38.34
14966;BME280;7577;45.226;5.798;2023-04-09T10:30:35;99457.25;;;22.83;38.60
14966;BME280;7577;45.226;5.798;2023-04-09T10:33:13;99459.47;;;22.84;38.57
14966;BME280;7577;45.226;5.798;2023-04-09T10:35:46;99461.42;;;22.83;38.36
14966;BME280;7577;45.226;5.798;2023-04-09T10:41:08;99442.56;;;22.83;38.13
14966;BME280;7577;45.226;5.798;2023-04-09T10:43:40;99444.52;;;22.82;38.08
14966;BME280;7577;45.226;5.798;2023-04-09T10:46:26;99448.36;;;22.84;38.06
14966;BME280;7577;45.226;5.798;2023-04-09T10:51:52;99429.64;;;22.87;38.18
14966;BME280;7577;45.226;5.798;2023-04-09T10:54:38;99425.80;;;22.85;38.22
14966;BME280;7577;45.226;5.798;2023-04-09T10:57:20;99424.65;;;22.86;38.09
14966;BME280;7577;45.226;5.798;2023-04-09T10:59:53;99421.64;;;22.85;38.17
14966;BME280;7577;45.226;5.798;2023-04-09T11:02:54;99415.25;;;22.85;38.15
14966;BME280;7577;45.226;5.798;2023-04-09T11:05:35;99410.29;;;22.84;38.14
14966;BME280;7577;45.226;5.798;2023-04-09T11:08:08;99401.13;;;22.84;38.25
14966;BME280;7577;45.226;5.798;2023-04-09T11:10:41;99394.42;;;22.85;38.38
14966;BME280;7577;45.226;5.798;2023-04-09T11:13:13;99397.70;;;22.87;38.56
14966;BME280;7577;45.226;5.798;2023-04-09T11:15:44;99393.20;;;22.88;38.58
14966;BME280;7577;45.226;5.798;2023-04-09T11:18:18;99392.51;;;22.91;38.62
14966;BME280;7577;45.226;5.798;2023-04-09T11:23:28;99380.50;;;22.93;38.86
14966;BME280;7577;45.226;5.798;2023-04-09T11:28:36;99368.37;;;22.98;38.81
14966;BME280;7577;45.226;5.798;2023-04-09T11:33:50;99365.03;;;22.98;38.96
14966;BME280;7577;45.226;5.798;2023-04-09T11:39:03;99357.35;;;22.95;38.88
14966;BME280;7577;45.226;5.798;2023-04-09T11:44:12;99355.86;;;22.98;38.79
14966;BME280;7577;45.226;5.798;2023-04-09T11:46:43;99354.80;;;22.96;38.73
14966;BME280;7577;45.226;5.798;2023-04-09T11:51:51;99343.36;;;22.98;38.68
14966;BME280;7577;45.226;5.798;2023-04-09T11:54:22;99336.05;;;22.93;38.65
14966;BME280;7577;45.226;5.798;2023-04-09T11:56:52;99335.12;;;22.95;38.61
14966;BME280;7577;45.226;5.798;2023-04-09T11:59:23;99332.11;;;22.94;38.52
14966;BME280;7577;45.226;5.798;2023-04-09T12:01:54;99336.18;;;22.97;38.51
14966;BME280;7577;45.226;5.798;2023-04-09T12:04:26;99328.18;;;22.95;38.47
14966;BME280;7577;45.226;5.798;2023-04-09T12:06:57;99323.78;;;22.94;38.41
14966;BME280;7577;45.226;5.798;2023-04-09T12:09:27;99317.30;;;22.96;38.41
14966;BME280;7577;45.226;5.798;2023-04-09T12:14:37;99314.42;;;22.99;38.34
14966;BME280;7577;45.226;5.798;2023-04-09T12:17:09;99314.42;;;22.99;38.30
14966;BME280;7577;45.226;5.798;2023-04-09T12:19:39;99315.02;;;22.98;38.28
14966;BME280;7577;45.226;5.798;2023-04-09T12:22:09;99308.06;;;22.98;38.25
14966;BME280;7577;45.226;5.798;2023-04-09T12:27:17;99299.63;;;23.01;38.12
14966;BME280;7577;45.226;5.798;2023-04-09T12:32:25;99303.20;;;23.01;38.05
14966;BME280;7577;45.226;5.798;2023-04-09T12:34:55;99298.80;;;23.00;38.01
14966;BME280;7577;45.226;5.798;2023-04-09T12:40:05;99297.31;;;23.03;37.95
14966;BME280;7577;45.226;5.798;2023-04-09T12:45:15;99286.36;;;23.06;37.91
14966;BME280;7577;45.226;5.798;2023-04-09T12:47:46;99291.09;;;23.06;38.10
14966;BME280;7577;45.226;5.798;2023-04-09T12:50:16;99295.26;;;23.06;38.57
14966;BME280;7577;45.226;5.798;2023-04-09T12:52:46;99284.05;;;23.08;38.50
14966;BME280;7577;45.226;5.798;2023-04-09T12:55:16;99289.98;;;23.13;38.71
14966;BME280;7577;45.226;5.798;2023-04-09T12:57:48;99285.72;;;23.15;38.70
14966;BME280;7577;45.226;5.798;2023-04-09T13:00:18;99280.62;;;23.17;38.67
14966;BME280;7577;45.226;5.798;2023-04-09T13:02:49;99284.15;;;23.20;38.57
14966;BME280;7577;45.226;5.798;2023-04-09T13:05:20;99279.98;;;23.20;38.69
14966;BME280;7577;45.226;5.798;2023-04-09T13:07:50;99279.98;;;23.20;38.73
14966;BME280;7577;45.226;5.798;2023-04-09T13:10:21;99279.55;;;23.24;38.61
14966;BME280;7577;45.226;5.798;2023-04-09T13:12:51;99272.00;;;23.25;38.59
14966;BME280;7577;45.226;5.798;2023-04-09T13:15:23;99273.65;;;23.26;38.52
14966;BME280;7577;45.226;5.798;2023-04-09T13:17:54;99278.28;;;23.28;38.43
14966;BME280;7577;45.226;5.798;2023-04-09T13:20:24;99265.77;;;23.28;38.30
14966;BME280;7577;45.226;5.798;2023-04-09T13:22:55;99264.05;;;23.29;38.20
14966;BME280;7577;45.226;5.798;2023-04-09T13:28:04;99255.27;;;23.33;38.06
14966;BME280;7577;45.226;5.798;2023-04-09T13:30:34;99258.38;;;23.32;38.09
14966;BME280;7577;45.226;5.798;2023-04-09T13:33:04;99252.94;;;23.35;38.01
14966;BME280;7577;45.226;5.798;2023-04-09T13:35:34;99247.88;;;23.37;37.87
14966;BME280;7577;45.226;5.798;2023-04-09T13:38:04;99246.94;;;23.39;37.85
14966;BME280;7577;45.226;5.798;2023-04-09T13:43:13;99236.77;;;23.43;37.73
14966;BME280;7577;45.226;5.798;2023-04-09T13:45:43;99240.11;;;23.43;37.72
14966;BME280;7577;45.226;5.798;2023-04-09T13:48:13;99231.53;;;23.42;37.63
14966;BME280;7577;45.226;5.798;2023-04-09T13:50:43;99232.59;;;23.43;37.64
14966;BME280;7577;45.226;5.798;2023-04-09T13:53:13;99226.36;;;23.46;37.48
14966;BME280;7577;45.226;5.798;2023-04-09T13:55:43;99223.80;;;23.47;37.44
14966;BME280;7577;45.226;5.798;2023-04-09T13:58:14;99229.59;;;23.48;37.35
14966;BME280;7577;45.226;5.798;2023-04-09T14:00:44;99224.52;;;23.50;37.35
14966;BME280;7577;45.226;5.798;2023-04-09T14:03:14;99223.92;;;23.51;37.30
14966;BME280;7577;45.226;5.798;2023-04-09T14:05:44;99215.02;;;23.51;37.23
14966;BME280;7577;45.226;5.798;2023-04-09T14:08:16;99202.73;;;23.52;37.15
14966;BME280;7577;45.226;5.798;2023-04-09T14:10:46;99217.34;;;23.55;37.09
14966;BME280;7577;45.226;5.798;2023-04-09T14:13:16;99210.73;;;23.60;36.96
14966;BME280;7577;45.226;5.798;2023-04-09T14:15:46;99213.41;;;23.62;36.87
14966;BME280;7577;45.226;5.798;2023-04-09T14:18:17;99202.44;;;23.66;36.74
14966;BME280;7577;45.226;5.798;2023-04-09T14:23:26;99204.65;;;23.72;36.58
14966;BME280;7577;45.226;5.798;2023-04-09T14:25:57;99198.48;;;23.73;36.50
14966;BME280;7577;45.226;5.798;2023-04-09T14:28:27;99200.02;;;23.76;36.50
14966;BME280;7577;45.226;5.798;2023-04-09T14:30:57;99198.03;;;23.77;36.35
14966;BME280;7577;45.226;5.798;2023-04-09T14:33:27;99200.48;;;23.78;36.30
14966;BME280;7577;45.226;5.798;2023-04-09T14:35:58;99197.58;;;23.81;36.25
14966;BME280;7577;45.226;5.798;2023-04-09T14:38:27;99195.40;;;23.80;36.24
14966;BME280;7577;45.226;5.798;2023-04-09T14:40:57;99198.18;;;23.80;36.23
14966;BME280;7577;45.226;5.798;2023-04-09T14:46:06;99192.95;;;23.85;36.11
14966;BME280;7577;45.226;5.798;2023-04-09T14:48:38;99191.34;;;23.84;36.04
14966;BME280;7577;45.226;5.798;2023-04-09T14:51:11;99186.56;;;23.84;36.04
14966;BME280;7577;45.226;5.798;2023-04-09T14:53:42;99187.16;;;23.90;36.01
14966;BME280;7577;45.226;5.798;2023-04-09T14:56:12;99185.69;;;23.92;35.90
14966;BME280;7577;45.226;5.798;2023-04-09T14:58:42;99185.83;;;23.96;35.85
14966;BME280;7577;45.226;5.798;2023-04-09T15:01:12;99187.55;;;24.00;35.77
14966;BME280;7577;45.226;5.798;2023-04-09T15:03:42;99183.48;;;24.04;35.72
14966;BME280;7577;45.226;5.798;2023-04-09T15:06:12;99189.98;;;24.08;35.63
14966;BME280;7577;45.226;5.798;2023-04-09T15:08:44;99188.95;;;24.12;35.53
14966;BME280;7577;45.226;5.798;2023-04-09T15:11:15;99189.41;;;24.14;35.40
14966;BME280;7577;45.226;5.798;2023-04-09T15:13:46;99185.00;;;24.19;35.45
14966;BME280;7577;45.226;5.798;2023-04-09T15:16:21;99187.80;;;24.25;35.34
14966;BME280;7577;45.226;5.798;2023-04-09T15:18:52;99185.95;;;24.29;35.30
14966;BME280;7577;45.226;5.798;2023-04-09T15:21:25;99185.48;;;24.33;35.21
14966;BME280;7577;45.226;5.798;2023-04-09T15:26:34;99185.23;;;24.44;35.04
14966;BME280;7577;45.226;5.798;2023-04-09T15:29:06;99186.50;;;24.47;35.07
14966;BME280;7577;45.226;5.798;2023-04-09T15:31:36;99181.28;;;24.51;34.96
14966;BME280;7577;45.226;5.798;2023-04-09T15:34:06;99177.55;;;24.53;34.94
14966;BME280;7577;45.226;5.798;2023-04-09T15:36:36;99181.27;;;24.57;34.86
14966;BME280;7577;45.226;5.798;2023-04-09T15:39:06;99177.82;;;24.60;34.81
14966;BME280;7577;45.226;5.798;2023-04-09T15:41:36;99184.06;;;24.63;34.67
14966;BME280;7577;45.226;5.798;2023-04-09T15:44:07;99186.98;;;24.67;34.65
14966;BME280;7577;45.226;5.798;2023-04-09T15:46:38;99187.77;;;24.67;34.61
14966;BME280;7577;45.226;5.798;2023-04-09T15:49:09;99192.87;;;24.71;34.65
14966;BME280;7577;45.226;5.798;2023-04-09T15:51:39;99180.69;;;24.76;34.53
14966;BME280;7577;45.226;5.798;2023-04-09T15:54:10;99176.16;;;24.77;34.42
14966;BME280;7577;45.226;5.798;2023-04-09T15:56:40;99180.91;;;24.77;34.42
14966;BME280;7577;45.226;5.798;2023-04-09T15:59:10;99181.61;;;24.80;34.42
14966;BME280;7577;45.226;5.798;2023-04-09T16:01:40;99178.70;;;24.82;34.31
14966;BME280;7577;45.226;5.798;2023-04-09T16:06:51;99169.70;;;24.95;34.19
14966;BME280;7577;45.226;5.798;2023-04-09T16:09:23;99180.28;;;24.95;34.07
14966;BME280;7577;45.226;5.798;2023-04-09T16:14:31;99180.86;;;25.01;34.03
14966;BME280;7577;45.226;5.798;2023-04-09T16:17:01;99178.64;;;25.00;34.01
14966;BME280;7577;45.226;5.798;2023-04-09T16:19:31;99175.50;;;25.02;33.96
14966;BME280;7577;45.226;5.798;2023-04-09T16:24:39;99178.39;;;25.05;33.93
14966;BME280;7577;45.226;5.798;2023-04-09T16:27:09;99182.00;;;25.06;33.89
14966;BME280;7577;45.226;5.798;2023-04-09T16:29:41;99173.38;;;25.11;33.92